Terminal Aerodrome Forecast
Issued by NWS Atlanta, GA

Home | Current Version | Previous Version | Text Only | Print | Product List | Glossary On
Versions: 1 2 3 4 5 6 7 8 9 10 11 12 13 14 15 16 17 18 19 20 21 22 23 24 25 26 27 28 29 30 31 32 33 34 35 36 37 38 39 40 41 42 43 44 45
000
FTAK31 PAJN 250238 AAB
TAFAHN
TAF AMD
PAHN 250238Z 2503/2524 30011KT 3SM -SN BR OVC030
      TEMPO 2503/2505 30015G20KT 1SM -SN BR OVC007
     FM250500 30010KT P6SM VCSH OVC040
     FM251200 30011KT P6SM BKN080
     FM252100 30011KT P6SM SCT100
      AMD LTD TO CLD VIS AND WIND=

USA.gov is the U.S. government's official web portal to all federal, state and local government web resources and services.